Time;durP1;ratioP1;P1;durP2;ratioP2;P2;SDS_P1;SDS_P2;PMS_P1;PMS_P2;Temp;Humidity;BMP_temperature;BMP_pressure;BME280_temperature;BME280_humidity;BME280_pressure;Samples;Min_cycle;Max_cycle;Signal;HPM_P1;HPM_P2
2022/01/26 00:08:27;;;;;;;22.17;10.05;;;;;;;;;;10322620;28;20042;-66
2022/01/26 00:13:29;;;;;;;23.05;9.98;;;;;;;;;;10310437;28;20050;-66
2022/01/26 00:18:35;;;;;;;19.55;9.05;;;;;;;;;;10310439;28;20050;-65
2022/01/26 00:29:09;;;;;;;24.70;10.57;;;;;;;;;;10307707;28;20062;-67
2022/01/26 00:39:32;;;;;;;23.38;9.32;;;;;;;;;;10322289;28;20373;-65
2022/01/26 00:44:41;;;;;;;24.65;10.32;;;;;;;;;;10317439;28;20069;-66
2022/01/26 00:49:44;;;;;;;28.77;10.45;;;;;;;;;;10330793;28;20352;-66
2022/01/26 00:54:47;;;;;;;20.92;9.45;;;;;;;;;;10316845;28;20046;-67
2022/01/26 00:59:50;;;;;;;25.95;10.20;;;;;;;;;;10317565;28;20057;-65
2022/01/26 01:04:52;;;;;;;16.30;9.35;;;;;;;;;;10316256;28;20058;-65
2022/01/26 01:09:56;;;;;;;27.73;10.75;;;;;;;;;;10317298;28;20406;-66
2022/01/26 01:14:58;;;;;;;28.50;10.57;;;;;;;;;;10316029;28;20047;-66
2022/01/26 01:20:14;;;;;;;21.75;10.93;;;;;;;;;;10316388;28;20065;-66
2022/01/26 01:26:01;;;;;;;19.65;10.90;;;;;;;;;;10329665;28;20058;-66
2022/01/26 01:31:06;;;;;;;28.05;12.30;;;;;;;;;;10276296;29;20052;-66
2022/01/26 01:36:10;;;;;;;30.90;12.77;;;;;;;;;;10298601;28;20094;-67
2022/01/26 01:41:15;;;;;;;28.95;13.20;;;;;;;;;;10315477;28;20051;-65
2022/01/26 01:46:18;;;;;;;30.00;13.85;;;;;;;;;;10316079;28;20050;-66
2022/01/26 01:51:27;;;;;;;28.33;13.98;;;;;;;;;;10314840;28;20051;-67
2022/01/26 01:56:31;;;;;;;28.05;13.13;;;;;;;;;;10328728;28;20058;-66
2022/01/26 02:01:33;;;;;;;27.77;13.20;;;;;;;;;;10314205;28;20081;-65
2022/01/26 02:06:36;;;;;;;28.75;14.18;;;;;;;;;;10315219;28;20192;-65
2022/01/26 02:11:46;;;;;;;27.63;13.60;;;;;;;;;;10315147;28;20047;-66
2022/01/26 02:16:55;;;;;;;25.63;12.55;;;;;;;;;;10327282;28;20050;-66
2022/01/26 02:59:52;;;;;;;25.23;13.43;;;;;;;;;;10220352;29;20063;-65
2022/01/26 03:04:57;;;;;;;25.10;12.13;;;;;;;;;;10325443;28;20245;-65
2022/01/26 03:10:05;;;;;;;21.35;11.10;;;;;;;;;;10312572;28;20058;-65
2022/01/26 03:15:14;;;;;;;24.50;10.70;;;;;;;;;;10325307;28;20047;-65
2022/01/26 03:20:16;;;;;;;21.75;11.07;;;;;;;;;;10325038;28;20046;-66
2022/01/26 03:31:07;;;;;;;21.85;11.00;;;;;;;;;;10300469;28;20047;-66
2022/01/26 03:36:12;;;;;;;19.50;9.82;;;;;;;;;;10318459;28;20211;-66
2022/01/26 03:41:32;;;;;;;17.25;9.50;;;;;;;;;;10312903;28;20066;-66
2022/01/26 03:46:35;;;;;;;18.70;8.57;;;;;;;;;;10320840;28;20354;-66
2022/01/26 03:51:40;;;;;;;23.70;9.40;;;;;;;;;;10309894;28;20057;-66
2022/01/26 03:56:44;;;;;;;20.92;8.75;;;;;;;;;;10311335;28;20043;-65
2022/01/26 04:01:46;;;;;;;15.93;8.20;;;;;;;;;;10309595;28;20241;-65
2022/01/26 04:06:49;;;;;;;24.20;8.95;;;;;;;;;;10311128;28;20050;-65
2022/01/26 04:11:52;;;;;;;15.43;7.95;;;;;;;;;;10311314;28;20334;-65
2022/01/26 04:16:55;;;;;;;26.58;11.15;;;;;;;;;;10308685;28;20113;-65
2022/01/26 04:22:08;;;;;;;42.08;16.70;;;;;;;;;;10309464;28;20043;-66
2022/01/26 04:27:19;;;;;;;29.38;12.40;;;;;;;;;;10319913;28;20043;-65
2022/01/26 04:32:23;;;;;;;22.52;9.25;;;;;;;;;;10322901;28;20054;-66
2022/01/26 04:37:35;;;;;;;45.47;17.38;;;;;;;;;;10308415;28;20352;-65
2022/01/26 04:42:48;;;;;;;38.67;19.98;;;;;;;;;;10309607;28;20105;-65
2022/01/26 04:47:50;;;;;;;21.27;10.30;;;;;;;;;;10322301;28;20106;-66
2022/01/26 04:52:53;;;;;;;29.33;9.85;;;;;;;;;;10308507;28;20050;-66
2022/01/26 04:57:56;;;;;;;20.48;9.55;;;;;;;;;;10309203;28;20062;-66
2022/01/26 05:02:59;;;;;;;34.13;10.65;;;;;;;;;;10309289;28;20054;-66
2022/01/26 05:08:01;;;;;;;32.67;11.82;;;;;;;;;;10309579;28;20049;-66
2022/01/26 05:13:05;;;;;;;37.42;12.30;;;;;;;;;;10313164;28;20054;-66
2022/01/26 05:18:07;;;;;;;24.85;10.77;;;;;;;;;;10316558;28;20043;-66
2022/01/26 05:23:09;;;;;;;34.38;12.18;;;;;;;;;;10316879;28;20254;-66
2022/01/26 05:28:14;;;;;;;28.00;10.82;;;;;;;;;;10315634;28;20051;-66
2022/01/26 05:33:16;;;;;;;19.08;9.13;;;;;;;;;;10316545;28;20059;-66
2022/01/26 05:38:19;;;;;;;22.05;10.93;;;;;;;;;;10315531;28;20316;-66
2022/01/26 05:43:23;;;;;;;21.90;14.90;;;;;;;;;;10315050;28;20054;-67
2022/01/26 05:48:25;;;;;;;26.58;11.32;;;;;;;;;;10315896;28;20325;-66
2022/01/26 05:53:27;;;;;;;21.00;9.35;;;;;;;;;;10314529;28;20248;-66
2022/01/26 05:58:32;;;;;;;26.67;10.15;;;;;;;;;;10314994;28;20058;-65
2022/01/26 06:03:34;;;;;;;39.15;13.88;;;;;;;;;;10315033;28;20093;-66
2022/01/26 06:08:37;;;;;;;18.40;8.07;;;;;;;;;;10315137;28;20062;-66
2022/01/26 06:13:40;;;;;;;17.25;7.50;;;;;;;;;;10310672;28;20046;-65
2022/01/26 06:18:43;;;;;;;24.02;9.35;;;;;;;;;;10314332;28;20043;-66
2022/01/26 06:23:47;;;;;;;28.50;15.27;;;;;;;;;;10312035;28;20101;-66
2022/01/26 06:28:51;;;;;;;25.33;11.18;;;;;;;;;;10313682;28;20054;-66
2022/01/26 06:33:54;;;;;;;23.55;10.82;;;;;;;;;;10314697;28;20223;-66
2022/01/26 06:38:56;;;;;;;22.83;10.40;;;;;;;;;;10311367;28;20059;-66
2022/01/26 06:44:05;;;;;;;28.52;10.80;;;;;;;;;;10311605;28;20050;-66
2022/01/26 06:54:39;;;;;;;40.75;16.17;;;;;;;;;;10252319;28;20250;-66
2022/01/26 06:59:42;;;;;;;37.60;16.48;;;;;;;;;;10312115;28;20083;-65
2022/01/26 07:04:45;;;;;;;38.92;18.05;;;;;;;;;;10312185;28;20242;-69
2022/01/26 07:09:47;;;;;;;52.00;21.65;;;;;;;;;;10311397;28;20094;-67
2022/01/26 07:25:43;;;;;;;44.30;20.67;;;;;;;;;;10198125;29;20070;-69
2022/01/26 07:30:47;;;;;;;53.05;27.00;;;;;;;;;;10188715;29;20055;-67
2022/01/26 07:35:49;;;;;;;56.10;25.42;;;;;;;;;;10166486;29;20052;-70
2022/01/26 07:40:51;;;;;;;41.78;21.45;;;;;;;;;;10185684;29;20079;-69
2022/01/26 07:45:55;;;;;;;48.70;21.98;;;;;;;;;;10186901;29;20068;-68
2022/01/26 07:50:58;;;;;;;62.70;26.52;;;;;;;;;;10188076;29;20090;-65
2022/01/26 07:56:00;;;;;;;45.10;22.52;;;;;;;;;;10188131;29;20048;-67
2022/01/26 08:01:04;;;;;;;41.50;19.65;;;;;;;;;;10309221;28;20389;-69
2022/01/26 08:06:10;;;;;;;30.73;17.25;;;;;;;;;;10306814;28;20046;-67
2022/01/26 08:11:13;;;;;;;38.75;19.05;;;;;;;;;;10324183;28;20043;-68
2022/01/26 08:16:17;;;;;;;31.65;17.55;;;;;;;;;;10310355;28;20174;-66
2022/01/26 08:21:19;;;;;;;32.20;17.48;;;;;;;;;;10310293;28;20059;-68
2022/01/26 08:26:33;;;;;;;31.03;17.13;;;;;;;;;;10309405;28;20050;-68
2022/01/26 08:31:37;;;;;;;40.47;21.52;;;;;;;;;;10298347;28;20134;-69
2022/01/26 08:36:39;;;;;;;42.08;21.80;;;;;;;;;;10309785;28;20047;-67
2022/01/26 08:41:43;;;;;;;38.25;22.00;;;;;;;;;;10308794;28;20047;-68
2022/01/26 08:46:46;;;;;;;33.47;19.50;;;;;;;;;;10312149;28;20299;-67
2022/01/26 08:51:51;;;;;;;36.38;20.23;;;;;;;;;;10316345;28;20042;-68
2022/01/26 08:56:54;;;;;;;33.65;20.25;;;;;;;;;;10316653;28;20054;-68
2022/01/26 09:01:58;;;;;;;33.63;17.73;;;;;;;;;;10315984;28;20066;-71
2022/01/26 09:07:03;;;;;;;24.73;13.77;;;;;;;;;;10316228;28;20066;-66
2022/01/26 09:12:07;;;;;;;32.58;17.23;;;;;;;;;;10316479;28;20050;-66
2022/01/26 09:17:12;;;;;;;23.87;14.97;;;;;;;;;;10315939;28;20050;-67
2022/01/26 09:22:16;;;;;;;26.97;16.43;;;;;;;;;;10295475;28;20051;-69
2022/01/26 09:27:19;;;;;;;21.45;14.48;;;;;;;;;;10315489;28;20090;-66
2022/01/26 09:32:23;;;;;;;28.50;15.93;;;;;;;;;;10317357;28;20038;-70
2022/01/26 09:37:26;;;;;;;26.60;14.27;;;;;;;;;;10315733;28;20061;-69
2022/01/26 09:42:28;;;;;;;18.25;9.73;;;;;;;;;;10328940;28;20039;-69
2022/01/26 09:47:32;;;;;;;16.05;9.43;;;;;;;;;;10316259;28;20054;-70
2022/01/26 09:52:40;;;;;;;15.98;10.40;;;;;;;;;;10314874;28;20239;-69
2022/01/26 09:57:44;;;;;;;20.40;11.55;;;;;;;;;;10327805;28;21579;-71
2022/01/26 10:02:57;;;;;;;15.13;10.85;;;;;;;;;;10314169;28;20287;-69
2022/01/26 10:08:09;;;;;;;20.70;12.93;;;;;;;;;;10325276;28;20054;-69
2022/01/26 10:18:34;;;;;;;28.27;13.45;;;;;;;;;;10320033;28;20035;-70
2022/01/26 10:23:39;;;;;;;16.80;9.63;;;;;;;;;;10313541;28;20078;-69
2022/01/26 10:28:44;;;;;;;16.10;7.25;;;;;;;;;;10314833;28;20078;-72
2022/01/26 10:33:59;;;;;;;15.38;7.90;;;;;;;;;;10314222;28;20055;-69
2022/01/26 10:39:05;;;;;;;19.48;11.43;;;;;;;;;;10321239;28;20070;-65
2022/01/26 10:44:08;;;;;;;18.60;10.60;;;;;;;;;;10326088;28;20062;-67
2022/01/26 10:49:18;;;;;;;12.55;8.38;;;;;;;;;;10313677;28;20062;-69
2022/01/26 10:54:34;;;;;;;14.05;8.10;;;;;;;;;;10319640;28;20242;-69
2022/01/26 10:59:37;;;;;;;;;;;;;;;;;;10302644;28;20357;-68
2022/01/26 11:04:43;;;;;;;19.85;11.23;;;;;;;;;;10312330;28;19926;-67
2022/01/26 11:09:46;;;;;;;20.40;11.82;;;;;;;;;;10325932;28;20039;-68
2022/01/26 11:14:50;;;;;;;25.30;13.02;;;;;;;;;;10312104;28;20046;-67
2022/01/26 11:19:56;;;;;;;27.48;13.55;;;;;;;;;;10311913;28;20465;-73
2022/01/26 11:25:09;;;;;;;25.05;13.10;;;;;;;;;;10325450;28;20054;-68
2022/01/26 11:30:17;;;;;;;30.45;12.52;;;;;;;;;;10325240;28;20073;-68
2022/01/26 11:35:22;;;;;;;15.77;7.95;;;;;;;;;;10310991;28;20053;-66
2022/01/26 11:45:45;;;;;;;14.70;7.32;;;;;;;;;;10311582;28;20054;-68
2022/01/26 11:50:59;;;;;;;14.77;6.85;;;;;;;;;;10311139;28;20349;-69
2022/01/26 11:56:09;;;;;;;19.90;7.03;;;;;;;;;;10324457;28;20054;-66
2022/01/26 12:01:17;;;;;;;11.18;6.35;;;;;;;;;;10321717;28;20249;-69
2022/01/26 12:06:28;;;;;;;12.45;7.05;;;;;;;;;;10305660;28;20190;-68
2022/01/26 12:11:30;;;;;;;15.45;7.13;;;;;;;;;;10309953;28;20055;-67
2022/01/26 12:16:35;;;;;;;15.32;7.40;;;;;;;;;;10309596;28;20046;-65
2022/01/26 12:32:38;;;;;;;16.05;7.05;;;;;;;;;;10329023;28;20038;-66
2022/01/26 12:37:53;;;;;;;16.25;7.43;;;;;;;;;;10319685;28;20071;-70
2022/01/26 12:43:05;;;;;;;11.38;6.97;;;;;;;;;;10317814;28;20357;-65
2022/01/26 12:48:10;;;;;;;16.50;7.07;;;;;;;;;;10331617;28;20053;-68
2022/01/26 12:53:14;;;;;;;36.07;13.60;;;;;;;;;;10294065;28;20332;-67
2022/01/26 12:58:24;;;;;;;9.98;6.32;;;;;;;;;;10307634;28;20110;-65
2022/01/26 13:03:30;;;;;;;8.63;5.78;;;;;;;;;;10331321;28;20054;-67
2022/01/26 13:08:42;;;;;;;6.88;4.80;;;;;;;;;;10330080;28;20034;-66
2022/01/26 13:13:45;;;;;;;10.63;7.15;;;;;;;;;;10327370;28;20105;-67
2022/01/26 13:30:00;;;;;;;9.23;7.15;;;;;;;;;;10132262;29;20044;-67
2022/01/26 13:35:35;;;;;;;17.05;9.15;;;;;;;;;;10138035;29;20087;-65
2022/01/26 13:40:51;;;;;;;8.13;6.70;;;;;;;;;;10135632;29;20262;-66
2022/01/26 13:51:23;;;;;;;;;;;;;;;;;;10113022;29;20064;-68
2022/01/26 13:56:40;;;;;;;8.15;4.97;;;;;;;;;;10309022;28;19933;-69
2022/01/26 14:01:44;;;;;;;10.27;6.55;;;;;;;;;;10315369;28;20066;-69
2022/01/26 14:06:48;;;;;;;9.43;5.82;;;;;;;;;;10311077;28;20066;-68
2022/01/26 14:11:52;;;;;;;9.85;7.32;;;;;;;;;;10311039;28;20346;-68
2022/01/26 14:16:58;;;;;;;18.85;11.43;;;;;;;;;;10310328;28;20189;-67
2022/01/26 14:22:30;;;;;;;19.15;10.32;;;;;;;;;;10312226;28;20055;-67
2022/01/26 14:27:40;;;;;;;12.80;8.82;;;;;;;;;;10312577;28;20066;-69
2022/01/26 15:42:33;;;;;;;15.65;10.23;;;;;;;;;;10312496;28;20246;-67
2022/01/26 15:53:05;;;;;;;19.67;12.40;;;;;;;;;;10325722;28;20113;-67
2022/01/26 15:58:20;;;;;;;21.83;14.00;;;;;;;;;;10323820;28;20042;-66
2022/01/26 16:19:58;;;;;;;20.67;12.65;;;;;;;;;;10277741;28;20051;-68
2022/01/26 18:17:57;;;;;;;25.10;11.10;;;;;;;;;;10313790;28;20051;-67
2022/01/26 18:39:31;;;;;;;13.25;8.38;;;;;;;;;;10322496;28;20063;-67
2022/01/26 18:49:55;;;;;;;19.27;9.73;;;;;;;;;;10303194;28;20121;-68
2022/01/26 18:54:57;;;;;;;19.00;10.30;;;;;;;;;;10313499;28;20070;-68
2022/01/26 19:00:01;;;;;;;21.85;10.05;;;;;;;;;;10310268;28;20042;-68
2022/01/26 19:05:05;;;;;;;24.13;10.80;;;;;;;;;;10312613;28;20093;-68
2022/01/26 19:10:09;;;;;;;22.23;10.25;;;;;;;;;;10312617;28;20215;-67
2022/01/26 19:15:16;;;;;;;26.65;11.35;;;;;;;;;;10312201;28;20051;-68
2022/01/26 19:20:34;;;;;;;24.17;10.27;;;;;;;;;;10325572;28;20058;-70
2022/01/26 19:25:41;;;;;;;19.90;10.30;;;;;;;;;;10308165;28;20046;-67
2022/01/26 19:47:16;;;;;;;17.30;9.45;;;;;;;;;;10325606;28;20051;-67
2022/01/26 19:52:18;;;;;;;20.40;9.43;;;;;;;;;;10311196;28;20043;-67
2022/01/26 19:57:21;;;;;;;21.00;11.13;;;;;;;;;;10310863;28;20102;-68
2022/01/26 20:02:26;;;;;;;19.63;10.55;;;;;;;;;;10311592;28;20043;-69
2022/01/26 20:07:30;;;;;;;23.35;11.43;;;;;;;;;;10312538;28;20066;-68
2022/01/26 20:12:40;;;;;;;21.03;10.27;;;;;;;;;;10309914;28;20050;-66
2022/01/26 20:17:44;;;;;;;15.60;9.35;;;;;;;;;;10321758;28;20117;-68
2022/01/26 20:22:46;;;;;;;19.92;9.63;;;;;;;;;;10310446;28;20053;-68
2022/01/26 20:27:49;;;;;;;21.38;11.00;;;;;;;;;;10310931;28;20058;-65
2022/01/26 20:32:52;;;;;;;20.45;10.38;;;;;;;;;;10310988;28;20065;-67
2022/01/26 20:37:58;;;;;;;20.63;10.52;;;;;;;;;;10310046;28;20051;-68
2022/01/26 20:43:01;;;;;;;20.63;10.90;;;;;;;;;;10313774;28;20043;-68
2022/01/26 20:48:05;;;;;;;20.08;10.55;;;;;;;;;;10319564;28;20247;-69
2022/01/26 20:53:08;;;;;;;25.70;11.55;;;;;;;;;;10319727;28;20054;-67
2022/01/26 20:58:11;;;;;;;16.58;9.50;;;;;;;;;;10319166;28;20055;-68
2022/01/26 21:03:15;;;;;;;20.38;10.45;;;;;;;;;;10318190;28;20086;-69
2022/01/26 21:08:21;;;;;;;19.63;10.48;;;;;;;;;;10320219;28;20462;-67
2022/01/26 21:13:24;;;;;;;27.60;13.35;;;;;;;;;;10330910;28;20047;-68
2022/01/26 21:18:29;;;;;;;25.27;12.82;;;;;;;;;;10316059;28;20042;-68
2022/01/26 21:23:32;;;;;;;26.25;13.52;;;;;;;;;;10332246;28;20050;-66
2022/01/26 21:28:34;;;;;;;28.52;12.15;;;;;;;;;;10317625;28;20125;-68
2022/01/26 21:33:41;;;;;;;25.20;12.77;;;;;;;;;;10318355;28;20346;-71
2022/01/26 21:38:47;;;;;;;33.97;14.77;;;;;;;;;;10316642;28;20317;-67
2022/01/26 21:43:50;;;;;;;30.25;11.70;;;;;;;;;;10331547;28;20047;-69
2022/01/26 21:48:54;;;;;;;32.47;15.27;;;;;;;;;;10316395;28;20348;-69
2022/01/26 21:53:56;;;;;;;31.92;12.55;;;;;;;;;;10313847;28;20199;-65
2022/01/26 21:58:58;;;;;;;38.92;15.90;;;;;;;;;;10315772;28;20042;-68
2022/01/26 22:04:03;;;;;;;42.28;16.38;;;;;;;;;;10315207;28;20039;-68
2022/01/26 22:09:05;;;;;;;40.88;16.30;;;;;;;;;;10305818;28;20059;-67
2022/01/26 22:14:08;;;;;;;42.83;16.80;;;;;;;;;;10299382;28;20086;-65
2022/01/26 22:19:11;;;;;;;42.42;17.60;;;;;;;;;;10315678;28;20050;-65
2022/01/26 22:24:15;;;;;;;42.15;15.82;;;;;;;;;;10314898;28;20051;-65
2022/01/26 22:29:23;;;;;;;45.33;16.08;;;;;;;;;;10315108;28;20047;-66
2022/01/26 22:34:27;;;;;;;49.38;17.15;;;;;;;;;;10313892;28;20065;-68
2022/01/26 22:39:30;;;;;;;46.20;16.42;;;;;;;;;;10314309;28;20050;-68
2022/01/26 22:44:33;;;;;;;48.17;16.10;;;;;;;;;;10315006;28;20051;-67
2022/01/26 22:49:37;;;;;;;45.08;16.75;;;;;;;;;;10314615;28;20150;-67
2022/01/26 22:54:39;;;;;;;44.35;17.67;;;;;;;;;;10315175;28;20085;-67
2022/01/26 22:59:41;;;;;;;39.90;16.00;;;;;;;;;;10313906;28;20078;-66
2022/01/26 23:05:01;;;;;;;41.72;15.68;;;;;;;;;;10312848;28;20266;-67
2022/01/26 23:10:04;;;;;;;38.72;15.30;;;;;;;;;;10313690;28;20376;-67
2022/01/26 23:15:06;;;;;;;41.63;14.98;;;;;;;;;;10312715;28;20046;-66
2022/01/26 23:20:11;;;;;;;42.55;15.10;;;;;;;;;;10313152;28;20042;-67
2022/01/26 23:25:20;;;;;;;49.17;17.58;;;;;;;;;;10313560;28;20349;-67
2022/01/26 23:30:34;;;;;;;38.28;14.45;;;;;;;;;;10313407;28;20106;-67
2022/01/26 23:35:54;;;;;;;33.40;14.40;;;;;;;;;;10320280;28;20113;-66
